createdAt,value
2022-11-26T00:00:00.457Z,8.60
2022-11-26T00:02:31.893Z,8.60
2022-11-26T00:05:00.864Z,8.50
2022-11-26T00:07:32.153Z,8.60
2022-11-26T00:10:02.134Z,8.60
2022-11-26T00:12:34.915Z,8.60
2022-11-26T00:15:15.930Z,8.50
2022-11-26T00:17:44.369Z,8.50
2022-11-26T00:20:13.073Z,8.50
2022-11-26T00:22:45.251Z,8.60
2022-11-26T00:25:18.853Z,8.50
2022-11-26T00:27:49.489Z,8.50
2022-11-26T00:30:22.659Z,8.50
2022-11-26T00:32:51.870Z,8.60
2022-11-26T00:35:20.929Z,8.70
2022-11-26T00:37:51.787Z,8.70
2022-11-26T00:40:24.893Z,8.60
2022-11-26T00:43:01.205Z,8.60
2022-11-26T00:45:32.225Z,8.60
2022-11-26T00:48:01.974Z,8.60
2022-11-26T00:50:35.095Z,8.50
2022-11-26T00:53:04.229Z,8.50
2022-11-26T00:55:39.602Z,8.50
2022-11-26T00:58:22.595Z,8.70
2022-11-26T01:00:51.173Z,8.80
2022-11-26T01:03:19.866Z,8.90
2022-11-26T01:05:51.827Z,8.80
2022-11-26T01:08:29.637Z,8.80
2022-11-26T01:10:58.350Z,8.80
2022-11-26T01:13:28.461Z,8.80
2022-11-26T01:15:58.888Z,8.80
2022-11-26T01:18:27.959Z,8.80
2022-11-26T01:20:56.346Z,8.80
2022-11-26T01:23:24.790Z,8.90
2022-11-26T01:25:53.196Z,8.90
2022-11-26T01:28:21.600Z,8.80
2022-11-26T01:30:51.522Z,8.90
2022-11-26T01:33:19.941Z,8.90
2022-11-26T01:35:49.579Z,8.90
2022-11-26T01:38:17.952Z,8.90
2022-11-26T01:41:03.073Z,8.70
2022-11-26T01:43:38.118Z,8.80
2022-11-26T01:46:14.789Z,8.90
2022-11-26T01:48:43.440Z,8.90
2022-11-26T01:51:13.588Z,8.90
2022-11-26T01:53:50.608Z,8.80
2022-11-26T01:56:23.208Z,8.80
2022-11-26T01:58:57.216Z,8.80
2022-11-26T02:01:28.169Z,8.80
2022-11-26T02:04:03.841Z,8.90
2022-11-26T02:06:34.818Z,9.00
2022-11-26T02:09:05.997Z,9.00
2022-11-26T02:11:34.524Z,9.10
2022-11-26T02:14:06.265Z,9.10
2022-11-26T02:16:50.225Z,9.00
2022-11-26T02:19:44.795Z,9.10
2022-11-26T02:22:30.059Z,9.00
2022-11-26T02:25:08.801Z,9.00
2022-11-26T02:28:15.417Z,8.80
2022-11-26T02:30:47.630Z,8.80
2022-11-26T02:33:21.708Z,8.90
2022-11-26T02:35:54.642Z,8.90
2022-11-26T02:38:30.398Z,8.80
2022-11-26T02:40:58.895Z,8.80
2022-11-26T02:43:30.511Z,8.70
2022-11-26T02:46:04.464Z,8.80
2022-11-26T02:48:35.749Z,8.80
2022-11-26T02:51:09.695Z,8.80
2022-11-26T02:53:41.133Z,8.90
2022-11-26T02:56:13.118Z,8.80
2022-11-26T02:58:41.783Z,8.80
2022-11-26T03:01:16.822Z,8.80
2022-11-26T03:03:50.008Z,8.80
2022-11-26T03:06:19.886Z,8.80
2022-11-26T03:08:48.351Z,8.80
2022-11-26T03:11:16.791Z,8.80
2022-11-26T03:13:45.227Z,8.90
2022-11-26T03:16:15.131Z,9.00
2022-11-26T03:18:43.743Z,9.00
2022-11-26T03:21:12.186Z,9.00
2022-11-26T03:23:40.601Z,9.00
2022-11-26T03:26:09.420Z,9.00
2022-11-26T03:28:37.870Z,9.00
2022-11-26T03:31:06.530Z,9.00
2022-11-26T03:33:36.318Z,9.00
2022-11-26T03:36:04.941Z,9.10
2022-11-26T03:38:33.400Z,9.20
2022-11-26T03:41:05.695Z,9.10
2022-11-26T03:43:34.154Z,9.10
2022-11-26T03:46:02.642Z,9.10
2022-11-26T03:48:31.220Z,9.10
2022-11-26T03:51:01.701Z,9.10
2022-11-26T03:53:30.107Z,9.20
2022-11-26T03:55:58.513Z,9.20
2022-11-26T03:58:26.937Z,9.20
2022-11-26T04:00:55.510Z,9.20
2022-11-26T04:03:24.165Z,9.20
2022-11-26T04:05:52.698Z,9.20
2022-11-26T04:08:22.504Z,9.20
2022-11-26T04:10:50.920Z,9.30
2022-11-26T04:13:19.466Z,9.30
2022-11-26T04:15:49.593Z,9.30
2022-11-26T04:18:18.779Z,9.30
2022-11-26T04:20:52.834Z,9.20
2022-11-26T04:23:25.554Z,9.10
2022-11-26T04:25:53.990Z,8.90
2022-11-26T04:28:22.414Z,9.00
2022-11-26T04:30:52.063Z,9.10
2022-11-26T04:33:21.027Z,9.10
2022-11-26T04:35:50.875Z,9.00
2022-11-26T04:38:24.199Z,9.20
2022-11-26T04:40:55.999Z,9.20
2022-11-26T04:43:24.591Z,9.30
2022-11-26T04:45:53.082Z,9.30
2022-11-26T04:48:21.602Z,9.20
2022-11-26T04:50:50.571Z,9.10
2022-11-26T04:53:21.974Z,9.00
2022-11-26T04:55:50.990Z,9.00
2022-11-26T04:58:21.859Z,9.00
2022-11-26T05:00:51.514Z,8.90
2022-11-26T05:03:20.341Z,8.90
2022-11-26T05:05:48.895Z,9.00
2022-11-26T05:08:18.173Z,9.10
2022-11-26T05:10:46.594Z,9.10
2022-11-26T05:13:15.026Z,9.20
2022-11-26T05:15:44.895Z,9.20
2022-11-26T05:18:13.355Z,9.20
2022-11-26T05:20:42.050Z,9.20
2022-11-26T05:23:10.690Z,9.10
2022-11-26T05:25:39.155Z,9.10
2022-11-26T05:28:07.857Z,9.00
2022-11-26T05:30:36.485Z,9.10
2022-11-26T05:33:06.483Z,9.10
2022-11-26T05:35:34.933Z,9.20
2022-11-26T05:38:05.866Z,9.10
2022-11-26T05:40:34.430Z,9.10
2022-11-26T05:43:02.865Z,9.00
2022-11-26T05:45:31.352Z,9.20
2022-11-26T05:47:59.805Z,9.10
2022-11-26T05:50:29.597Z,9.10
2022-11-26T05:52:58.094Z,9.20
2022-11-26T05:55:28.646Z,9.10
2022-11-26T05:57:58.058Z,9.20
2022-11-26T06:00:27.629Z,9.20
2022-11-26T06:02:56.206Z,9.20
2022-11-26T06:05:24.701Z,9.30
2022-11-26T06:07:54.612Z,9.40
2022-11-26T06:10:23.096Z,9.40
2022-11-26T06:12:51.488Z,9.40
2022-11-26T06:15:20.245Z,9.40
2022-11-26T06:17:48.679Z,9.40
2022-11-26T06:20:17.256Z,9.40
2022-11-26T06:22:45.873Z,9.50
2022-11-26T06:25:15.906Z,9.50
2022-11-26T06:27:44.529Z,9.50
2022-11-26T06:30:14.029Z,9.60
2022-11-26T06:32:42.516Z,9.60
2022-11-26T06:35:11.504Z,9.60
2022-11-26T06:37:39.926Z,9.50
2022-11-26T06:40:09.780Z,9.50
2022-11-26T06:42:39.649Z,9.50
2022-11-26T06:45:08.845Z,9.40
2022-11-26T06:47:37.244Z,9.40
2022-11-26T06:50:10.745Z,9.50
2022-11-26T06:52:39.659Z,9.50
2022-11-26T06:55:08.725Z,9.10
2022-11-26T06:57:37.188Z,9.00
2022-11-26T07:00:08.622Z,9.20
2022-11-26T07:02:38.535Z,9.30
2022-11-26T07:05:07.007Z,9.50
2022-11-26T07:07:38.563Z,9.70
2022-11-26T07:10:08.478Z,9.80
2022-11-26T07:12:37.559Z,9.80
2022-11-26T07:15:08.462Z,9.80
2022-11-26T07:17:36.868Z,9.90
2022-11-26T07:20:06.154Z,10.00
2022-11-26T07:22:35.974Z,10.10
2022-11-26T07:25:08.096Z,10.00
2022-11-26T07:27:39.607Z,9.90
2022-11-26T07:30:12.003Z,9.80
2022-11-26T07:32:40.854Z,10.00
2022-11-26T07:35:17.742Z,10.10
2022-11-26T07:37:46.318Z,10.20
2022-11-26T07:40:15.482Z,10.20
2022-11-26T07:42:44.011Z,10.30
2022-11-26T07:45:14.074Z,10.20
2022-11-26T07:47:43.414Z,10.30
2022-11-26T07:50:12.149Z,10.40
2022-11-26T07:52:40.608Z,10.60
2022-11-26T07:55:12.666Z,10.70
2022-11-26T07:57:41.382Z,10.80
2022-11-26T08:00:11.010Z,11.00
2022-11-26T08:02:43.983Z,11.10
2022-11-26T08:05:12.527Z,11.20
2022-11-26T08:07:40.954Z,11.30
2022-11-26T08:10:10.210Z,11.30
2022-11-26T08:12:38.615Z,11.50
2022-11-26T08:15:07.790Z,11.60
2022-11-26T08:17:36.285Z,11.60
2022-11-26T08:20:07.982Z,11.70
2022-11-26T08:22:36.434Z,11.70
2022-11-26T08:25:05.095Z,11.90
2022-11-26T08:27:33.745Z,12.10
2022-11-26T08:30:02.284Z,12.30
2022-11-26T08:32:30.752Z,12.30
2022-11-26T08:34:59.225Z,12.30
2022-11-26T08:37:29.089Z,12.40
2022-11-26T08:39:57.652Z,12.40
2022-11-26T08:42:26.044Z,12.30
2022-11-26T08:44:55.044Z,12.50
2022-11-26T08:47:23.500Z,12.70
2022-11-26T08:49:51.970Z,12.80
2022-11-26T08:52:20.399Z,12.90
2022-11-26T08:54:51.080Z,13.10
2022-11-26T08:57:20.329Z,13.10
2022-11-26T08:59:48.729Z,13.10
2022-11-26T09:02:18.925Z,13.00
2022-11-26T09:04:47.677Z,12.90
2022-11-26T09:07:16.633Z,12.80
2022-11-26T09:09:45.323Z,12.90
2022-11-26T09:12:15.173Z,13.10
2022-11-26T09:14:43.882Z,13.20
2022-11-26T09:17:13.449Z,13.10
2022-11-26T09:19:42.074Z,13.30
2022-11-26T09:22:10.521Z,13.40
2022-11-26T09:24:39.234Z,13.30
2022-11-26T09:27:08.403Z,13.30
2022-11-26T09:29:38.308Z,13.20
2022-11-26T09:32:24.282Z,13.20
2022-11-26T09:34:55.807Z,13.20
2022-11-26T09:37:24.312Z,13.10
2022-11-26T09:39:54.903Z,12.90
2022-11-26T09:42:31.465Z,12.90
2022-11-26T09:45:24.790Z,12.90
2022-11-26T09:47:54.775Z,13.00
2022-11-26T09:50:29.576Z,13.10
2022-11-26T09:53:01.712Z,13.10
2022-11-26T09:55:32.544Z,13.10
2022-11-26T09:58:12.787Z,13.20
2022-11-26T10:00:44.978Z,13.20
2022-11-26T10:03:15.816Z,13.30
2022-11-26T10:05:53.694Z,13.20
2022-11-26T10:08:36.224Z,13.20
2022-11-26T10:11:11.308Z,13.30
2022-11-26T10:13:46.696Z,13.40
2022-11-26T10:16:30.886Z,13.50
2022-11-26T10:19:05.369Z,13.70
2022-11-26T10:21:58.067Z,13.70
2022-11-26T10:24:30.962Z,13.70
2022-11-26T10:27:01.942Z,14.00
2022-11-26T10:29:36.571Z,14.10
2022-11-26T10:32:14.943Z,14.10
2022-11-26T10:34:50.832Z,14.20
2022-11-26T10:37:20.280Z,14.20
2022-11-26T10:39:48.777Z,14.30
2022-11-26T10:42:20.405Z,14.40
2022-11-26T10:44:50.357Z,14.50
2022-11-26T10:47:27.166Z,14.70
2022-11-26T10:49:58.447Z,15.00
2022-11-26T10:52:29.722Z,15.10
2022-11-26T10:55:22.668Z,15.00
2022-11-26T10:57:56.501Z,15.00
2022-11-26T11:00:35.240Z,15.00
2022-11-26T11:03:13.706Z,14.90
2022-11-26T11:05:43.730Z,14.80
2022-11-26T11:08:16.461Z,15.00
2022-11-26T11:10:56.734Z,14.80
2022-11-26T11:13:39.786Z,14.90
2022-11-26T11:16:10.364Z,14.80
2022-11-26T11:18:48.411Z,14.80
2022-11-26T11:21:19.000Z,15.00
2022-11-26T11:24:07.753Z,15.00
2022-11-26T11:26:43.631Z,14.90
2022-11-26T11:29:34.032Z,14.80
2022-11-26T11:32:05.214Z,14.90
2022-11-26T11:34:38.386Z,14.90
2022-11-26T11:37:18.676Z,14.80
2022-11-26T11:39:47.210Z,14.80
2022-11-26T11:42:23.868Z,14.90
2022-11-26T11:44:53.356Z,14.90
2022-11-26T11:47:34.428Z,15.00
2022-11-26T11:50:24.563Z,15.00
2022-11-26T11:53:05.468Z,14.80
2022-11-26T11:55:52.178Z,14.80
2022-11-26T11:58:52.302Z,14.70
2022-11-26T12:01:31.992Z,14.60
2022-11-26T12:04:43.275Z,14.70
2022-11-26T12:07:43.042Z,14.60
2022-11-26T12:10:16.734Z,14.60
2022-11-26T12:12:49.006Z,14.70
2022-11-26T12:15:24.683Z,14.70
2022-11-26T12:17:59.121Z,14.70
2022-11-26T12:20:32.738Z,14.80
2022-11-26T12:23:24.177Z,14.80
2022-11-26T12:25:58.080Z,14.80
2022-11-26T12:28:31.874Z,14.80
2022-11-26T12:31:05.850Z,14.80
2022-11-26T12:33:41.543Z,14.70
2022-11-26T12:36:20.528Z,14.60
2022-11-26T12:38:54.257Z,14.70
2022-11-26T12:41:28.945Z,14.70
2022-11-26T12:44:05.698Z,14.60
2022-11-26T12:46:42.531Z,14.50
2022-11-26T12:49:21.876Z,14.50
2022-11-26T12:51:59.149Z,14.50
2022-11-26T12:54:34.912Z,14.40
2022-11-26T12:57:11.634Z,14.30
2022-11-26T12:59:49.495Z,14.20
2022-11-26T13:02:24.801Z,14.20
2022-11-26T13:04:54.997Z,14.30
2022-11-26T13:07:53.228Z,14.30
2022-11-26T13:10:38.760Z,14.30
2022-11-26T13:13:17.924Z,14.20
2022-11-26T13:15:51.383Z,14.20
2022-11-26T13:18:26.916Z,14.20
2022-11-26T13:21:09.132Z,14.30
2022-11-26T13:23:51.780Z,14.30
2022-11-26T13:26:45.626Z,14.20
2022-11-26T13:29:42.628Z,14.10
2022-11-26T13:32:44.208Z,14.00
2022-11-26T13:35:22.823Z,14.00
2022-11-26T13:38:15.106Z,14.00
2022-11-26T13:41:22.825Z,14.00
2022-11-26T13:44:23.790Z,13.90
2022-11-26T13:46:59.414Z,13.90
2022-11-26T13:49:34.287Z,13.80
2022-11-26T13:52:06.998Z,13.80
2022-11-26T13:54:39.841Z,13.70
2022-11-26T13:57:13.944Z,13.70
2022-11-26T13:59:47.706Z,13.70
2022-11-26T14:02:47.458Z,13.60
2022-11-26T14:05:18.437Z,13.60
2022-11-26T14:07:47.879Z,13.50
2022-11-26T14:10:42.737Z,13.40
2022-11-26T14:13:16.311Z,13.40
2022-11-26T14:16:02.570Z,13.40
2022-11-26T14:19:07.590Z,13.30
2022-11-26T14:22:03.827Z,13.40
2022-11-26T14:24:55.169Z,13.40
2022-11-26T14:27:25.352Z,13.50
2022-11-26T14:29:58.981Z,13.40
2022-11-26T14:32:31.181Z,13.40
2022-11-26T14:35:00.323Z,13.40
2022-11-26T14:37:32.183Z,13.20
2022-11-26T14:40:01.978Z,13.20
2022-11-26T14:42:30.982Z,13.20
2022-11-26T14:45:03.882Z,13.10
2022-11-26T14:47:33.585Z,13.00
2022-11-26T14:50:08.003Z,13.00
2022-11-26T14:52:40.610Z,13.00
2022-11-26T14:55:19.807Z,12.90
2022-11-26T14:57:52.304Z,12.80
2022-11-26T15:00:25.446Z,12.70
2022-11-26T15:02:54.489Z,12.70
2022-11-26T15:05:25.182Z,12.70
2022-11-26T15:08:01.981Z,12.60
2022-11-26T15:10:34.504Z,12.60
2022-11-26T15:13:07.923Z,12.60
2022-11-26T15:15:36.545Z,12.50
2022-11-26T15:18:07.166Z,12.50
2022-11-26T15:20:35.825Z,12.50
2022-11-26T15:23:14.593Z,12.50
2022-11-26T15:25:50.728Z,12.60
2022-11-26T15:28:21.938Z,12.60
2022-11-26T15:30:56.540Z,12.40
2022-11-26T15:33:26.211Z,12.30
2022-11-26T15:35:57.200Z,12.30
2022-11-26T15:38:28.649Z,12.30
2022-11-26T15:41:04.780Z,12.30
2022-11-26T15:43:36.473Z,12.30
2022-11-26T15:46:12.664Z,12.30
2022-11-26T15:48:52.752Z,12.20
2022-11-26T15:51:29.412Z,12.30
2022-11-26T15:54:02.850Z,12.30
2022-11-26T15:56:35.457Z,12.20
2022-11-26T15:59:08.054Z,12.10
2022-11-26T16:01:39.303Z,12.00
2022-11-26T16:04:27.770Z,12.00
2022-11-26T16:07:10.152Z,11.90
2022-11-26T16:09:40.605Z,11.80
2022-11-26T16:12:31.538Z,11.60
2022-11-26T16:15:19.161Z,11.70
2022-11-26T16:17:48.862Z,11.60
2022-11-26T16:20:22.946Z,11.60
2022-11-26T16:22:54.240Z,11.60
2022-11-26T16:25:26.272Z,11.50
2022-11-26T16:28:14.477Z,11.40
2022-11-26T16:30:45.124Z,11.40
2022-11-26T16:33:14.508Z,11.20
2022-11-26T16:35:45.626Z,11.20
2022-11-26T16:38:23.122Z,11.20
2022-11-26T16:40:53.840Z,11.20
2022-11-26T16:43:22.820Z,11.30
2022-11-26T16:45:54.773Z,11.40
2022-11-26T16:48:25.954Z,11.30
2022-11-26T16:50:55.867Z,11.30
2022-11-26T16:53:24.535Z,11.30
2022-11-26T16:55:54.854Z,11.30
2022-11-26T16:58:28.228Z,11.40
2022-11-26T17:00:58.551Z,11.40
2022-11-26T17:03:32.805Z,11.30
2022-11-26T17:06:03.355Z,11.30
2022-11-26T17:08:32.142Z,11.30
2022-11-26T17:11:01.915Z,11.30
2022-11-26T17:13:31.132Z,11.20
2022-11-26T17:16:01.483Z,11.30
2022-11-26T17:18:29.893Z,11.40
2022-11-26T17:20:58.330Z,11.40
2022-11-26T17:23:28.179Z,11.40
2022-11-26T17:25:57.029Z,11.40
2022-11-26T17:28:26.825Z,11.30
2022-11-26T17:30:56.897Z,11.20
2022-11-26T17:33:25.378Z,11.20
2022-11-26T17:35:53.918Z,11.20
2022-11-26T17:38:23.118Z,11.30
2022-11-26T17:40:51.737Z,11.30
2022-11-26T17:43:20.177Z,11.20
2022-11-26T17:45:50.074Z,11.30
2022-11-26T17:48:18.565Z,11.40
2022-11-26T17:50:46.975Z,11.40
2022-11-26T17:53:15.421Z,11.50
2022-11-26T17:55:43.916Z,11.40
2022-11-26T17:58:13.118Z,11.40
2022-11-26T18:00:41.632Z,11.30
2022-11-26T18:03:11.985Z,11.30
2022-11-26T18:05:42.405Z,11.30
2022-11-26T18:08:11.005Z,11.30
2022-11-26T18:10:41.375Z,11.40
2022-11-26T18:13:09.742Z,11.30
2022-11-26T18:15:38.135Z,11.20
2022-11-26T18:18:07.542Z,11.30
2022-11-26T18:20:37.347Z,11.40
2022-11-26T18:23:05.857Z,11.40
2022-11-26T18:25:35.441Z,11.40
2022-11-26T18:28:03.814Z,11.30
2022-11-26T18:30:32.282Z,11.30
2022-11-26T18:33:01.799Z,11.10
2022-11-26T18:35:30.225Z,11.10
2022-11-26T18:38:00.101Z,11.00
2022-11-26T18:40:28.607Z,11.00
2022-11-26T18:42:57.005Z,11.10
2022-11-26T18:45:25.517Z,11.10
2022-11-26T18:47:54.175Z,11.10
2022-11-26T18:50:22.703Z,11.20
2022-11-26T18:52:51.368Z,11.20
2022-11-26T18:55:21.603Z,11.10
2022-11-26T18:57:51.309Z,11.10
2022-11-26T19:00:20.746Z,11.20
2022-11-26T19:02:49.540Z,11.10
2022-11-26T19:05:18.306Z,10.90
2022-11-26T19:07:47.234Z,11.00
2022-11-26T19:10:15.743Z,11.00
2022-11-26T19:12:45.533Z,11.00
2022-11-26T19:15:14.093Z,11.00
2022-11-26T19:17:42.534Z,11.00
2022-11-26T19:20:12.293Z,10.90
2022-11-26T19:22:40.874Z,11.10
2022-11-26T19:25:10.069Z,11.10
2022-11-26T19:27:38.711Z,11.10
2022-11-26T19:30:10.399Z,11.10
2022-11-26T19:32:38.862Z,11.10
2022-11-26T19:35:07.882Z,11.10
2022-11-26T19:37:36.272Z,11.10
2022-11-26T19:40:05.171Z,11.20
2022-11-26T19:42:33.854Z,11.20
2022-11-26T19:45:02.360Z,11.20
2022-11-26T19:47:32.189Z,11.20
2022-11-26T19:50:00.591Z,11.20
2022-11-26T19:52:29.409Z,11.20
2022-11-26T19:54:58.199Z,11.20
2022-11-26T19:57:26.657Z,11.30
2022-11-26T19:59:55.096Z,11.30
2022-11-26T20:02:23.524Z,11.30
2022-11-26T20:04:53.368Z,11.30
2022-11-26T20:07:21.913Z,11.30
2022-11-26T20:09:52.422Z,11.30
2022-11-26T20:12:20.928Z,11.40
2022-11-26T20:14:49.550Z,11.40
2022-11-26T20:17:18.069Z,11.30
2022-11-26T20:19:47.201Z,11.30
2022-11-26T20:22:18.184Z,11.20
2022-11-26T20:24:46.748Z,11.40
2022-11-26T20:27:15.195Z,11.50
2022-11-26T20:29:43.631Z,11.50
2022-11-26T20:32:13.165Z,11.60
2022-11-26T20:34:41.933Z,11.60
2022-11-26T20:37:10.362Z,11.60
2022-11-26T20:39:40.570Z,11.50
2022-11-26T20:42:09.418Z,11.50
2022-11-26T20:44:37.815Z,11.50
2022-11-26T20:47:06.323Z,11.40
2022-11-26T20:49:42.531Z,11.30
2022-11-26T20:52:11.572Z,11.20
2022-11-26T20:54:41.493Z,11.30
2022-11-26T20:57:09.949Z,11.30
2022-11-26T20:59:39.113Z,11.30
2022-11-26T21:02:07.996Z,11.30
2022-11-26T21:04:36.472Z,11.40
2022-11-26T21:07:05.012Z,11.40
2022-11-26T21:09:33.492Z,11.20
2022-11-26T21:12:03.314Z,11.10
2022-11-26T21:14:31.913Z,11.10
2022-11-26T21:17:00.321Z,11.10
2022-11-26T21:19:28.954Z,11.10
2022-11-26T21:21:57.369Z,11.10
2022-11-26T21:24:25.951Z,11.20
2022-11-26T21:26:54.468Z,11.20
2022-11-26T21:29:24.335Z,11.20
2022-11-26T21:31:52.816Z,11.20
2022-11-26T21:34:23.927Z,11.10
2022-11-26T21:36:52.447Z,11.20
2022-11-26T21:39:21.106Z,11.20
2022-11-26T21:41:50.146Z,11.30
2022-11-26T21:44:18.841Z,11.30
2022-11-26T21:46:49.390Z,11.40
2022-11-26T21:49:17.794Z,11.40
2022-11-26T21:51:46.191Z,11.50
2022-11-26T21:54:14.967Z,11.60
2022-11-26T21:56:43.448Z,11.60
2022-11-26T21:59:11.967Z,11.80
2022-11-26T22:01:40.714Z,11.90
2022-11-26T22:04:15.219Z,11.90
2022-11-26T22:06:46.157Z,12.00
2022-11-26T22:09:15.689Z,12.10
2022-11-26T22:11:45.759Z,12.20
2022-11-26T22:14:16.732Z,12.20
2022-11-26T22:16:47.339Z,12.30
2022-11-26T22:19:17.505Z,12.40
2022-11-26T22:21:46.396Z,12.50
2022-11-26T22:24:16.483Z,12.60
2022-11-26T22:26:45.738Z,12.60
2022-11-26T22:29:15.275Z,12.70
2022-11-26T22:31:44.927Z,12.70
2022-11-26T22:34:18.053Z,12.60
2022-11-26T22:36:46.903Z,12.40
2022-11-26T22:39:17.512Z,12.10
2022-11-26T22:41:48.019Z,12.00
2022-11-26T22:44:17.527Z,11.90
2022-11-26T22:46:46.443Z,12.00
2022-11-26T22:49:18.996Z,11.90
2022-11-26T22:51:48.118Z,12.00
2022-11-26T22:54:18.047Z,11.90
2022-11-26T22:56:46.740Z,11.90
2022-11-26T22:59:15.989Z,11.90
2022-11-26T23:01:44.683Z,11.90
2022-11-26T23:04:13.380Z,12.00
2022-11-26T23:06:43.354Z,11.90
2022-11-26T23:09:13.447Z,11.80
2022-11-26T23:11:43.458Z,11.80
2022-11-26T23:14:12.424Z,11.80
2022-11-26T23:16:42.571Z,11.90
2022-11-26T23:19:12.204Z,11.90
2022-11-26T23:21:44.671Z,11.90
2022-11-26T23:24:13.715Z,11.90
2022-11-26T23:26:42.906Z,11.90
2022-11-26T23:29:12.476Z,12.00
2022-11-26T23:31:42.756Z,12.10
2022-11-26T23:34:11.915Z,12.10
2022-11-26T23:36:40.814Z,12.10
2022-11-26T23:39:13.849Z,12.00
2022-11-26T23:41:43.708Z,11.90
2022-11-26T23:44:12.219Z,11.80
2022-11-26T23:46:40.723Z,11.70
2022-11-26T23:49:09.135Z,11.50
2022-11-26T23:51:37.547Z,11.40
2022-11-26T23:54:06.089Z,11.50
2022-11-26T23:56:36.733Z,11.60
2022-11-26T23:59:06.298Z,11.70
